createdAt,value
2023-03-27T00:00:10.274Z,96476.44
2023-03-27T00:05:11.765Z,96478.69
2023-03-27T00:10:13.258Z,96489.09
2023-03-27T00:15:17.413Z,96479.44
2023-03-27T00:20:23.710Z,96477.38
2023-03-27T00:25:28.994Z,96474.13
2023-03-27T00:30:31.114Z,96481.28
2023-03-27T00:35:32.665Z,96490.84
2023-03-27T00:40:34.125Z,96494.03
2023-03-27T00:45:37.726Z,96505.88
2023-03-27T00:50:42.707Z,96488.22
2023-03-27T00:55:47.743Z,96504.25
2023-03-27T01:00:53.082Z,96515.66
2023-03-27T01:05:57.337Z,96526.75
2023-03-27T01:11:08.276Z,96541.06
2023-03-27T01:16:19.683Z,96560.88
2023-03-27T01:21:37.396Z,96566.22
2023-03-27T01:27:16.031Z,96587.81
2023-03-27T01:32:36.186Z,96610.56
2023-03-27T01:38:03.774Z,96613.53
2023-03-27T01:43:16.953Z,96629.88
2023-03-27T01:48:26.313Z,96649.25
2023-03-27T01:53:43.331Z,96671.81
2023-03-27T01:58:49.117Z,96678.44
2023-03-27T02:03:59.456Z,96683.69
2023-03-27T02:09:44.783Z,96694.91
2023-03-27T02:15:23.612Z,96702.31
2023-03-27T02:20:24.050Z,96716.66
2023-03-27T02:25:34.639Z,96717.31
2023-03-27T02:30:42.523Z,96732.50
2023-03-27T02:36:03.469Z,96740.91
2023-03-27T02:41:19.389Z,96769.41
2023-03-27T02:46:30.744Z,96770.09
2023-03-27T02:51:39.506Z,96785.25
2023-03-27T02:56:48.385Z,96793.16
2023-03-27T03:01:57.806Z,96803.22
2023-03-27T03:07:06.352Z,96815.25
2023-03-27T03:12:08.962Z,96837.03
2023-03-27T03:17:16.487Z,96841.66
2023-03-27T03:22:19.765Z,96850.25
2023-03-27T03:27:22.300Z,96861.13
2023-03-27T03:32:39.432Z,96873.63
2023-03-27T03:37:41.741Z,96889.97
2023-03-27T03:42:51.618Z,96904.66
2023-03-27T03:47:58.356Z,96924.94
2023-03-27T03:52:59.982Z,96926.75
2023-03-27T03:58:01.432Z,96934.53
2023-03-27T04:03:04.436Z,96948.03
2023-03-27T04:08:09.444Z,96959.88
2023-03-27T04:13:24.206Z,96973.25
2023-03-27T04:18:49.533Z,96983.16
2023-03-27T04:23:53.800Z,97009.88
2023-03-27T04:29:02.238Z,96999.94
2023-03-27T04:34:26.930Z,96995.00
2023-03-27T04:39:43.322Z,97012.78
2023-03-27T04:44:45.936Z,97029.09
2023-03-27T04:49:50.714Z,97039.59
2023-03-27T04:54:58.714Z,97050.75
2023-03-27T05:00:04.813Z,97061.78
2023-03-27T05:05:32.166Z,97071.66
2023-03-27T05:10:34.493Z,97086.34
2023-03-27T05:15:36.058Z,97091.44
2023-03-27T05:20:39.563Z,97105.50
2023-03-27T05:25:45.351Z,97110.97
2023-03-27T05:31:10.481Z,97114.25
2023-03-27T05:36:23.158Z,97120.53
2023-03-27T05:41:24.883Z,97128.13
2023-03-27T05:46:26.862Z,97131.25
2023-03-27T05:51:35.891Z,97141.56
2023-03-27T05:56:37.703Z,97149.13
2023-03-27T06:01:40.266Z,97153.72
2023-03-27T06:06:41.868Z,97169.84
2023-03-27T06:11:44.692Z,97179.38
2023-03-27T06:16:46.571Z,97200.19
2023-03-27T06:22:07.962Z,97197.19
2023-03-27T06:27:11.180Z,97196.66
2023-03-27T06:32:16.844Z,97204.72
2023-03-27T06:37:24.932Z,97212.03
2023-03-27T06:42:28.021Z,97227.53
2023-03-27T06:47:44.442Z,97232.69
2023-03-27T06:53:25.784Z,97237.09
2023-03-27T06:58:28.661Z,97252.63
2023-03-27T07:03:30.517Z,97281.56
2023-03-27T07:08:54.859Z,97268.56
2023-03-27T07:13:56.514Z,97290.47
2023-03-27T07:19:02.380Z,97292.75
2023-03-27T07:24:06.710Z,97299.88
2023-03-27T07:29:12.036Z,97303.31
2023-03-27T07:34:14.394Z,97315.78
2023-03-27T07:39:35.221Z,97333.84
2023-03-27T07:44:37.274Z,97334.13
2023-03-27T07:49:41.936Z,97334.50
2023-03-27T07:54:48.744Z,97326.78
2023-03-27T07:59:52.592Z,97336.47
2023-03-27T08:05:05.255Z,97353.50
2023-03-27T08:10:10.258Z,97346.75
2023-03-27T08:15:25.737Z,97350.81
2023-03-27T08:20:27.465Z,97364.09
2023-03-27T08:25:32.877Z,97371.34
2023-03-27T08:30:36.983Z,97374.44
2023-03-27T08:35:39.257Z,97371.63
2023-03-27T08:40:48.178Z,97379.78
2023-03-27T08:46:25.371Z,97385.28
2023-03-27T08:51:37.098Z,97404.00
2023-03-27T08:56:42.200Z,97399.16
2023-03-27T09:01:52.575Z,97395.63
2023-03-27T09:07:24.246Z,97391.03
2023-03-27T09:13:01.191Z,97399.72
2023-03-27T09:18:18.275Z,97427.19
2023-03-27T09:23:41.654Z,97417.38
2023-03-27T09:28:55.998Z,97414.69
2023-03-27T09:34:08.004Z,97420.28
2023-03-27T09:39:15.919Z,97444.72
2023-03-27T09:44:30.643Z,97451.91
2023-03-27T09:49:38.302Z,97464.78
2023-03-27T09:54:55.903Z,97467.72
2023-03-27T10:00:09.949Z,97466.06
2023-03-27T10:05:19.899Z,97460.78
2023-03-27T10:10:32.007Z,97453.25
2023-03-27T10:15:41.109Z,97456.06
2023-03-27T10:20:53.984Z,97468.16
2023-03-27T10:26:01.508Z,97469.94
2023-03-27T10:31:37.736Z,97469.19
2023-03-27T10:36:50.643Z,97480.91
2023-03-27T10:41:56.122Z,97480.69
2023-03-27T10:46:58.236Z,97497.03
2023-03-27T10:52:18.304Z,97516.13
2023-03-27T10:57:39.362Z,97508.41
2023-03-27T11:02:49.321Z,97533.47
2023-03-27T11:08:01.150Z,97533.22
2023-03-27T11:13:13.158Z,97542.09
2023-03-27T11:18:21.031Z,97535.56
2023-03-27T11:23:38.387Z,97535.81
2023-03-27T11:28:56.430Z,97529.31
2023-03-27T11:34:28.478Z,97542.44
2023-03-27T11:39:48.357Z,97531.94
2023-03-27T11:44:51.150Z,97543.91
2023-03-27T11:50:41.144Z,97546.69
2023-03-27T11:56:21.835Z,97548.25
2023-03-27T12:02:20.589Z,97556.78
2023-03-27T12:07:47.646Z,97545.41
2023-03-27T12:12:54.319Z,97556.25
2023-03-27T12:18:13.590Z,97548.63
2023-03-27T12:23:26.081Z,97558.25
2023-03-27T12:28:56.502Z,97562.66
2023-03-27T12:34:29.119Z,97553.94
2023-03-27T12:39:31.072Z,97562.78
2023-03-27T12:45:18.344Z,97558.22
2023-03-27T12:50:27.379Z,97550.47
2023-03-27T12:55:33.733Z,97553.09
2023-03-27T13:00:35.811Z,97554.91
2023-03-27T13:06:12.494Z,97559.28
2023-03-27T13:11:37.897Z,97572.31
2023-03-27T13:16:52.686Z,97587.56
2023-03-27T13:22:17.709Z,97613.09
2023-03-27T13:27:22.224Z,97599.25
2023-03-27T13:32:34.969Z,97603.03
2023-03-27T13:38:03.620Z,97620.69
2023-03-27T13:43:21.760Z,97606.94
2023-03-27T13:49:02.413Z,97614.22
2023-03-27T13:54:34.468Z,97590.25
2023-03-27T14:00:01.154Z,97602.09
2023-03-27T14:05:54.686Z,97599.13
2023-03-27T14:11:23.517Z,97622.94
2023-03-27T14:17:00.857Z,97619.78
2023-03-27T14:22:14.230Z,97613.63
2023-03-27T14:27:26.226Z,97635.72
2023-03-27T14:32:32.862Z,97661.69
2023-03-27T14:37:36.645Z,97671.03
2023-03-27T14:42:49.987Z,97669.31
2023-03-27T14:48:37.036Z,97697.06
2023-03-27T14:53:44.358Z,97704.91
2023-03-27T14:59:28.508Z,97692.28
2023-03-27T15:04:34.762Z,97698.63
2023-03-27T15:09:42.708Z,97705.94
2023-03-27T15:15:04.928Z,97680.03
2023-03-27T15:20:09.974Z,97699.44
2023-03-27T15:25:18.278Z,97700.19
2023-03-27T15:30:37.258Z,97724.94
2023-03-27T15:35:44.954Z,97726.31
2023-03-27T15:40:46.729Z,97715.13
2023-03-27T15:46:02.295Z,97727.88
2023-03-27T15:51:06.960Z,97724.97
2023-03-27T15:56:34.480Z,97734.50
2023-03-27T16:01:42.068Z,97741.00
2023-03-27T16:06:46.814Z,97736.69
2023-03-27T16:11:49.895Z,97739.78
2023-03-27T16:16:54.138Z,97737.84
2023-03-27T16:21:57.475Z,97740.78
2023-03-27T16:26:59.013Z,97745.78
2023-03-27T16:32:00.532Z,97753.25
2023-03-27T16:37:02.001Z,97766.66
2023-03-27T16:42:03.609Z,97758.19
2023-03-27T16:47:05.107Z,97768.03
2023-03-27T16:52:06.582Z,97774.63
2023-03-27T16:57:08.591Z,97786.19
2023-03-27T17:02:11.571Z,97793.00
2023-03-27T17:07:13.003Z,97811.47
2023-03-27T17:12:14.395Z,97810.31
2023-03-27T17:17:16.064Z,97826.28
2023-03-27T17:22:17.552Z,97822.09
2023-03-27T17:27:18.983Z,97824.72
2023-03-27T17:32:20.553Z,97829.59
2023-03-27T17:37:22.770Z,97860.09
2023-03-27T17:42:24.264Z,97859.97
2023-03-27T17:47:25.775Z,97885.47
2023-03-27T17:52:27.493Z,97892.19
2023-03-27T17:57:29.463Z,97907.88
2023-03-27T18:02:31.007Z,97907.78
2023-03-27T18:07:32.549Z,97905.56
2023-03-27T18:12:34.203Z,97906.16
2023-03-27T18:17:35.864Z,97922.81
2023-03-27T18:22:39.530Z,97932.88
2023-03-27T18:27:41.804Z,97925.22
2023-03-27T18:32:45.871Z,97923.09
2023-03-27T18:37:47.412Z,97932.31
2023-03-27T18:42:48.965Z,97920.50
2023-03-27T18:47:50.555Z,97922.28
2023-03-27T18:52:52.080Z,97921.06
2023-03-27T18:57:53.497Z,97914.50
2023-03-27T19:02:55.164Z,97919.75
2023-03-27T19:07:59.203Z,97914.75
2023-03-27T19:13:01.809Z,97923.69
2023-03-27T19:18:25.399Z,97913.28
2023-03-27T19:23:38.925Z,97918.56
2023-03-27T19:28:40.645Z,97918.56
2023-03-27T19:33:42.643Z,97913.06
2023-03-27T19:38:44.445Z,97921.91
2023-03-27T19:43:45.944Z,97920.44
2023-03-27T19:48:49.486Z,97929.41
2023-03-27T19:53:59.476Z,97940.56
2023-03-27T19:59:02.071Z,97935.63
2023-03-27T20:04:04.185Z,97930.63
2023-03-27T20:09:06.736Z,97931.69
2023-03-27T20:14:10.882Z,97934.22
2023-03-27T20:19:14.002Z,97936.97
2023-03-27T20:24:17.176Z,97926.94
2023-03-27T20:29:24.304Z,97930.66
2023-03-27T20:34:25.853Z,97951.31
2023-03-27T20:39:27.292Z,97942.97
2023-03-27T20:44:35.086Z,97939.72
2023-03-27T20:49:41.098Z,97935.41
2023-03-27T20:54:42.998Z,97945.69
2023-03-27T20:59:48.092Z,97935.06
2023-03-27T21:04:49.626Z,97933.16
2023-03-27T21:09:52.802Z,97930.63
2023-03-27T21:14:54.147Z,97927.25
2023-03-27T21:19:55.693Z,97931.41
2023-03-27T21:24:57.114Z,97920.16
2023-03-27T21:29:58.774Z,97921.34
2023-03-27T21:35:00.209Z,97928.75
2023-03-27T21:40:01.650Z,97923.16
2023-03-27T21:45:03.635Z,97920.63
2023-03-27T21:50:05.824Z,97909.53
2023-03-27T21:55:07.638Z,97915.38
2023-03-27T22:00:09.894Z,97915.59
2023-03-27T22:05:17.141Z,97929.69
2023-03-27T22:10:18.748Z,97918.97
2023-03-27T22:15:20.537Z,97917.06
2023-03-27T22:20:22.718Z,97917.81
2023-03-27T22:25:24.157Z,97907.19
2023-03-27T22:30:25.674Z,97908.50
2023-03-27T22:35:27.137Z,97911.50
2023-03-27T22:40:28.525Z,97920.59
2023-03-27T22:45:29.924Z,97913.78
2023-03-27T22:50:31.378Z,97927.75
2023-03-27T22:55:32.791Z,97916.41
2023-03-27T23:00:34.187Z,97933.59
2023-03-27T23:05:39.922Z,97930.03
2023-03-27T23:10:41.699Z,97930.03
2023-03-27T23:15:43.119Z,97933.34
2023-03-27T23:20:44.521Z,97938.38
2023-03-27T23:25:46.035Z,97958.22
2023-03-27T23:30:59.195Z,97952.00
2023-03-27T23:36:04.323Z,97946.75
2023-03-27T23:41:07.351Z,97948.16
2023-03-27T23:46:10.430Z,97944.34
2023-03-27T23:51:14.666Z,97942.66
2023-03-27T23:56:16.286Z,97944.84
